AMX1005 MMPS-MMMX
Flight info
| Callsign | AMX1005 |
|---|---|
| Flight time | 0h 54m |
| Altitude | 29000 |
| Route | MMPS/27 DCT MASAS UJ69 OAX UJ33 KODEK UT157 LARLO LARL4A MMMX/EPRIM I05RZ |
| Aircraft | B738/M-V/N |
Departure
| Time | 2026-05-08 02:18 |
|---|---|
| Airport | Puerto Escondido International Airport (MMPS) |
Arrival
| Time | 2026-05-08 03:12 |
|---|---|
| Airport | Mexico City Benito Juárez International Airport (MMMX) |
| Time | Latitude | Longitude | Altitude | Speed | Heading |
|---|---|---|---|---|---|
| 2026-05-08 02:02 | 15.87487 | -97.09261 | 222 ft | 0 kts | 184° |
| 2026-05-08 02:09 | 15.87489 | -97.09261 | 222 ft | 1 kts | 184° |
| 2026-05-08 02:10 | 15.87504 | -97.09261 | 222 ft | 2 kts | 183° |
| 2026-05-08 02:10 | 15.87519 | -97.09260 | 223 ft | 2 kts | 184° |
| 2026-05-08 02:10 | 15.87534 | -97.09259 | 224 ft | 2 kts | 189° |
| 2026-05-08 02:10 | 15.87546 | -97.09251 | 225 ft | 2 kts | 244° |
| 2026-05-08 02:11 | 15.87548 | -97.09239 | 226 ft | 1 kts | 280° |
| 2026-05-08 02:11 | 15.87547 | -97.09232 | 226 ft | 0 kts | 276° |
| 2026-05-08 02:13 | 15.87557 | -97.09238 | 226 ft | 4 kts | 357° |
| 2026-05-08 02:14 | 15.87607 | -97.09231 | 229 ft | 10 kts | 6° |
| 2026-05-08 02:14 | 15.87690 | -97.09222 | 233 ft | 12 kts | 29° |
| 2026-05-08 02:14 | 15.87702 | -97.09135 | 238 ft | 13 kts | 95° |
| 2026-05-08 02:14 | 15.87694 | -97.09025 | 244 ft | 17 kts | 93° |
| 2026-05-08 02:15 | 15.87686 | -97.08862 | 253 ft | 27 kts | 93° |
| 2026-05-08 02:15 | 15.87674 | -97.08629 | 269 ft | 36 kts | 93° |
| 2026-05-08 02:15 | 15.87660 | -97.08374 | 281 ft | 32 kts | 93° |
| 2026-05-08 02:15 | 15.87646 | -97.08158 | 293 ft | 27 kts | 94° |
| 2026-05-08 02:16 | 15.87631 | -97.07976 | 299 ft | 22 kts | 97° |
| 2026-05-08 02:16 | 15.87594 | -97.07853 | 301 ft | 16 kts | 30° |
| 2026-05-08 02:16 | 15.87624 | -97.07886 | 301 ft | 0 kts | 276° |
| 2026-05-08 02:17 | 15.87635 | -97.08049 | 297 ft | 61 kts | 273° |
| 2026-05-08 02:17 | 15.87673 | -97.08768 | 260 ft | 135 kts | 274° |
| 2026-05-08 02:17 | 15.87741 | -97.09931 | 516 ft | 168 kts | 272° |
| 2026-05-08 02:18 | 15.87766 | -97.11151 | 1214 ft | 175 kts | 270° |
| 2026-05-08 02:18 | 15.87745 | -97.12460 | 1882 ft | 183 kts | 271° |
| 2026-05-08 02:18 | 15.87907 | -97.13713 | 2450 ft | 185 kts | 297° |
| 2026-05-08 02:18 | 15.88884 | -97.14620 | 2831 ft | 197 kts | 344° |
| 2026-05-08 02:19 | 15.90270 | -97.14535 | 3196 ft | 214 kts | 27° |
| 2026-05-08 02:19 | 15.91400 | -97.13459 | 3625 ft | 230 kts | 53° |
| 2026-05-08 02:19 | 15.92371 | -97.12017 | 4049 ft | 250 kts | 52° |
| 2026-05-08 02:19 | 15.93558 | -97.10659 | 4578 ft | 262 kts | 41° |
| 2026-05-08 02:20 | 15.95093 | -97.09509 | 5171 ft | 273 kts | 28° |
| 2026-05-08 02:20 | 15.96796 | -97.08649 | 5878 ft | 277 kts | 22° |
| 2026-05-08 02:20 | 15.98617 | -97.07910 | 6665 ft | 279 kts | 19° |
| 2026-05-08 02:20 | 16.00447 | -97.07220 | 7404 ft | 282 kts | 19° |
| 2026-05-08 02:21 | 16.02305 | -97.06522 | 8163 ft | 285 kts | 20° |
| 2026-05-08 02:21 | 16.04196 | -97.05798 | 8880 ft | 288 kts | 21° |
| 2026-05-08 02:21 | 16.06102 | -97.05057 | 9595 ft | 292 kts | 21° |
| 2026-05-08 02:21 | 16.08003 | -97.04314 | 10340 ft | 294 kts | 22° |
| 2026-05-08 02:22 | 16.09959 | -97.03547 | 10792 ft | 308 kts | 22° |
| 2026-05-08 02:22 | 16.12043 | -97.02729 | 11228 ft | 321 kts | 22° |
| 2026-05-08 02:22 | 16.14193 | -97.01887 | 11616 ft | 336 kts | 22° |
| 2026-05-08 02:22 | 16.16427 | -97.01011 | 11987 ft | 351 kts | 23° |
| 2026-05-08 02:23 | 16.18774 | -97.00092 | 12348 ft | 366 kts | 22° |
| 2026-05-08 02:23 | 16.21232 | -96.99129 | 12823 ft | 376 kts | 22° |
| 2026-05-08 02:23 | 16.23691 | -96.98171 | 13444 ft | 381 kts | 23° |
| 2026-05-08 02:23 | 16.26203 | -96.97189 | 14060 ft | 386 kts | 23° |
| 2026-05-08 02:24 | 16.28759 | -96.96187 | 14665 ft | 391 kts | 23° |
| 2026-05-08 02:24 | 16.31329 | -96.95179 | 15277 ft | 396 kts | 23° |
| 2026-05-08 02:24 | 16.33943 | -96.94160 | 15895 ft | 401 kts | 23° |
| 2026-05-08 02:24 | 16.36596 | -96.93126 | 16541 ft | 404 kts | 22° |
| 2026-05-08 02:25 | 16.39249 | -96.92088 | 17146 ft | 408 kts | 22° |
| 2026-05-08 02:25 | 16.41933 | -96.91035 | 17712 ft | 413 kts | 22° |
| 2026-05-08 02:25 | 16.44676 | -96.89961 | 18263 ft | 418 kts | 22° |
| 2026-05-08 02:25 | 16.47472 | -96.88957 | 18799 ft | 423 kts | 20° |
| 2026-05-08 02:26 | 16.50320 | -96.88030 | 19347 ft | 428 kts | 19° |
| 2026-05-08 02:26 | 16.53183 | -96.87139 | 19899 ft | 432 kts | 18° |
| 2026-05-08 02:26 | 16.56113 | -96.86236 | 20448 ft | 436 kts | 18° |
| 2026-05-08 02:26 | 16.59061 | -96.85323 | 20972 ft | 440 kts | 19° |
| 2026-05-08 02:27 | 16.62004 | -96.84405 | 21499 ft | 443 kts | 19° |
| 2026-05-08 02:27 | 16.65032 | -96.83544 | 22005 ft | 448 kts | 14° |
| 2026-05-08 02:27 | 16.68141 | -96.83126 | 22519 ft | 454 kts | 4° |
| 2026-05-08 02:27 | 16.71322 | -96.83225 | 22977 ft | 460 kts | 355° |
| 2026-05-08 02:28 | 16.72871 | -96.83466 | 23197 ft | 463 kts | 350° |
| 2026-05-08 02:28 | 16.76000 | -96.84350 | 23581 ft | 468 kts | 341° |
| 2026-05-08 02:28 | 16.78995 | -96.85747 | 23920 ft | 473 kts | 331° |
| 2026-05-08 02:28 | 16.81766 | -96.87629 | 24310 ft | 477 kts | 322° |
| 2026-05-08 02:29 | 16.84264 | -96.89960 | 24699 ft | 480 kts | 314° |
| 2026-05-08 02:29 | 16.86511 | -96.92528 | 25165 ft | 481 kts | 310° |
| 2026-05-08 02:29 | 16.88741 | -96.95154 | 25653 ft | 482 kts | 311° |
| 2026-05-08 02:29 | 16.91073 | -96.97696 | 26134 ft | 483 kts | 315° |
| 2026-05-08 02:30 | 16.93509 | -97.00073 | 26636 ft | 484 kts | 318° |
| 2026-05-08 02:30 | 16.96101 | -97.02361 | 27065 ft | 486 kts | 321° |
| 2026-05-08 02:30 | 16.98762 | -97.04530 | 27427 ft | 489 kts | 322° |
| 2026-05-08 02:30 | 17.01490 | -97.06638 | 27808 ft | 491 kts | 324° |
| 2026-05-08 02:31 | 17.04282 | -97.08726 | 28208 ft | 492 kts | 324° |
| 2026-05-08 02:31 | 17.07065 | -97.10773 | 28395 ft | 492 kts | 325° |
| 2026-05-08 02:31 | 17.12640 | -97.14841 | 28385 ft | 482 kts | 325° |
| 2026-05-08 02:32 | 17.18130 | -97.18850 | 28362 ft | 482 kts | 325° |
| 2026-05-08 02:32 | 17.23653 | -97.22900 | 28339 ft | 485 kts | 324° |
| 2026-05-08 02:33 | 17.29252 | -97.27020 | 28348 ft | 488 kts | 324° |
| 2026-05-08 02:33 | 17.34824 | -97.31130 | 28355 ft | 490 kts | 324° |
| 2026-05-08 02:34 | 17.40405 | -97.35253 | 28369 ft | 490 kts | 324° |
| 2026-05-08 02:34 | 17.45972 | -97.39368 | 28380 ft | 489 kts | 324° |
| 2026-05-08 02:35 | 17.51563 | -97.43506 | 28395 ft | 491 kts | 324° |
| 2026-05-08 02:35 | 17.57142 | -97.47636 | 28394 ft | 491 kts | 324° |
| 2026-05-08 02:36 | 17.62710 | -97.51761 | 28382 ft | 490 kts | 324° |
| 2026-05-08 02:36 | 17.68276 | -97.55888 | 28370 ft | 490 kts | 324° |
| 2026-05-08 02:37 | 17.73864 | -97.60035 | 28350 ft | 489 kts | 324° |
| 2026-05-08 02:37 | 17.79396 | -97.64143 | 28329 ft | 488 kts | 324° |
| 2026-05-08 02:38 | 17.84977 | -97.68292 | 28318 ft | 489 kts | 323° |
| 2026-05-08 02:38 | 17.90537 | -97.72427 | 28309 ft | 489 kts | 324° |
| 2026-05-08 02:39 | 17.96108 | -97.76575 | 28298 ft | 491 kts | 323° |
| 2026-05-08 02:39 | 18.01682 | -97.80727 | 28295 ft | 492 kts | 323° |
| 2026-05-08 02:40 | 18.07256 | -97.84884 | 28286 ft | 489 kts | 323° |
| 2026-05-08 02:40 | 18.12820 | -97.89037 | 28255 ft | 488 kts | 323° |
| 2026-05-08 02:41 | 18.18418 | -97.93218 | 28262 ft | 489 kts | 323° |
| 2026-05-08 02:41 | 18.21179 | -97.95280 | 28150 ft | 482 kts | 323° |
| 2026-05-08 02:41 | 18.23927 | -97.97334 | 27903 ft | 479 kts | 323° |
| 2026-05-08 02:42 | 18.26635 | -97.99358 | 27666 ft | 482 kts | 323° |
| 2026-05-08 02:42 | 18.29367 | -98.01402 | 27429 ft | 484 kts | 323° |
| 2026-05-08 02:42 | 18.32150 | -98.03485 | 27182 ft | 482 kts | 323° |
| 2026-05-08 02:42 | 18.34825 | -98.05487 | 26936 ft | 471 kts | 323° |
| 2026-05-08 02:43 | 18.37496 | -98.07486 | 26688 ft | 463 kts | 323° |
| 2026-05-08 02:43 | 18.40115 | -98.09448 | 26451 ft | 467 kts | 323° |
| 2026-05-08 02:43 | 18.42781 | -98.11446 | 26267 ft | 471 kts | 323° |
| 2026-05-08 02:43 | 18.45457 | -98.13454 | 26284 ft | 470 kts | 323° |
| 2026-05-08 02:44 | 18.48120 | -98.15453 | 26295 ft | 472 kts | 323° |
| 2026-05-08 02:44 | 18.50800 | -98.17464 | 26294 ft | 473 kts | 323° |
| 2026-05-08 02:44 | 18.53482 | -98.19477 | 26290 ft | 472 kts | 323° |
| 2026-05-08 02:44 | 18.56175 | -98.21499 | 26293 ft | 471 kts | 323° |
| 2026-05-08 02:45 | 18.58863 | -98.23518 | 26297 ft | 472 kts | 323° |
| 2026-05-08 02:45 | 18.61538 | -98.25530 | 26287 ft | 472 kts | 323° |
| 2026-05-08 02:45 | 18.64136 | -98.27605 | 26292 ft | 471 kts | 319° |
| 2026-05-08 02:45 | 18.66536 | -98.29952 | 26307 ft | 471 kts | 312° |
| 2026-05-08 02:46 | 18.68647 | -98.32592 | 26316 ft | 469 kts | 304° |
| 2026-05-08 02:46 | 18.70437 | -98.35460 | 26322 ft | 467 kts | 298° |
| 2026-05-08 02:46 | 18.71951 | -98.38519 | 26348 ft | 465 kts | 292° |
| 2026-05-08 02:46 | 18.73103 | -98.41679 | 26342 ft | 464 kts | 285° |
| 2026-05-08 02:47 | 18.73968 | -98.44969 | 26317 ft | 463 kts | 282° |
| 2026-05-08 02:47 | 18.74668 | -98.48259 | 25757 ft | 464 kts | 279° |
| 2026-05-08 02:47 | 18.75299 | -98.51650 | 24881 ft | 466 kts | 278° |
| 2026-05-08 02:47 | 18.75880 | -98.55012 | 23996 ft | 467 kts | 277° |
| 2026-05-08 02:48 | 18.76450 | -98.58379 | 22817 ft | 470 kts | 277° |
| 2026-05-08 02:48 | 18.77024 | -98.61772 | 21615 ft | 467 kts | 277° |
| 2026-05-08 02:48 | 18.77596 | -98.65094 | 20763 ft | 457 kts | 278° |
| 2026-05-08 02:48 | 18.78160 | -98.68323 | 19866 ft | 447 kts | 278° |
| 2026-05-08 02:49 | 18.78721 | -98.71497 | 19116 ft | 435 kts | 278° |
| 2026-05-08 02:49 | 18.79278 | -98.74628 | 18365 ft | 431 kts | 279° |
| 2026-05-08 02:49 | 18.79830 | -98.77731 | 17709 ft | 428 kts | 279° |
| 2026-05-08 02:49 | 18.80371 | -98.80753 | 17302 ft | 409 kts | 280° |
| 2026-05-08 02:50 | 18.80907 | -98.83612 | 17043 ft | 386 kts | 281° |
| 2026-05-08 02:50 | 18.81459 | -98.86276 | 17008 ft | 359 kts | 282° |
| 2026-05-08 02:50 | 18.82001 | -98.88762 | 16991 ft | 335 kts | 282° |
| 2026-05-08 02:50 | 18.82516 | -98.91098 | 16979 ft | 311 kts | 282° |
| 2026-05-08 02:51 | 18.83108 | -98.93247 | 17006 ft | 302 kts | 294° |
| 2026-05-08 02:51 | 18.84384 | -98.94981 | 17003 ft | 305 kts | 321° |
| 2026-05-08 02:51 | 18.86315 | -98.96023 | 17011 ft | 308 kts | 344° |
| 2026-05-08 02:51 | 18.88424 | -98.96401 | 16983 ft | 310 kts | 352° |
| 2026-05-08 02:52 | 18.90600 | -98.96714 | 16575 ft | 313 kts | 351° |
| 2026-05-08 02:52 | 18.92774 | -98.97063 | 16115 ft | 311 kts | 350° |
| 2026-05-08 02:52 | 18.94875 | -98.97417 | 15765 ft | 301 kts | 350° |
| 2026-05-08 02:52 | 18.96912 | -98.97760 | 15560 ft | 287 kts | 349° |
| 2026-05-08 02:53 | 18.98861 | -98.98084 | 15439 ft | 274 kts | 350° |
| 2026-05-08 02:53 | 19.00758 | -98.98398 | 15319 ft | 273 kts | 349° |
| 2026-05-08 02:53 | 19.02621 | -98.98704 | 15191 ft | 269 kts | 350° |
| 2026-05-08 02:53 | 19.04455 | -98.99004 | 15066 ft | 261 kts | 350° |
| 2026-05-08 02:54 | 19.06286 | -98.99303 | 14948 ft | 265 kts | 350° |
| 2026-05-08 02:54 | 19.08147 | -98.99609 | 14829 ft | 275 kts | 350° |
| 2026-05-08 02:54 | 19.10048 | -98.99920 | 14700 ft | 273 kts | 350° |
| 2026-05-08 02:54 | 19.11958 | -99.00232 | 14553 ft | 275 kts | 350° |
| 2026-05-08 02:55 | 19.13859 | -99.00544 | 14431 ft | 275 kts | 349° |
| 2026-05-08 02:55 | 19.17616 | -99.01340 | 14133 ft | 270 kts | 336° |
| 2026-05-08 02:55 | 19.19166 | -99.02358 | 13828 ft | 262 kts | 316° |
| 2026-05-08 02:56 | 19.20465 | -99.03699 | 13464 ft | 258 kts | 312° |
| 2026-05-08 02:56 | 19.21715 | -99.05042 | 13162 ft | 253 kts | 313° |
| 2026-05-08 02:56 | 19.22988 | -99.06347 | 12888 ft | 250 kts | 314° |
| 2026-05-08 02:56 | 19.24203 | -99.07667 | 12644 ft | 244 kts | 306° |
| 2026-05-08 02:57 | 19.25044 | -99.09172 | 12399 ft | 234 kts | 291° |
| 2026-05-08 02:57 | 19.25599 | -99.10749 | 12147 ft | 225 kts | 287° |
| 2026-05-08 02:57 | 19.26143 | -99.12289 | 11911 ft | 213 kts | 289° |
| 2026-05-08 02:57 | 19.26680 | -99.13673 | 11675 ft | 200 kts | 290° |
| 2026-05-08 02:58 | 19.27222 | -99.15043 | 11472 ft | 198 kts | 291° |
| 2026-05-08 02:58 | 19.27762 | -99.16378 | 11282 ft | 198 kts | 293° |
| 2026-05-08 02:58 | 19.28536 | -99.17589 | 11105 ft | 199 kts | 317° |
| 2026-05-08 02:58 | 19.29795 | -99.18299 | 10872 ft | 204 kts | 340° |
| 2026-05-08 02:59 | 19.31120 | -99.18804 | 10585 ft | 199 kts | 338° |
| 2026-05-08 02:59 | 19.32413 | -99.19388 | 10374 ft | 202 kts | 335° |
| 2026-05-08 02:59 | 19.33689 | -99.20013 | 10121 ft | 198 kts | 339° |
| 2026-05-08 02:59 | 19.35008 | -99.20280 | 9871 ft | 192 kts | 9° |
| 2026-05-08 03:00 | 19.36175 | -99.19721 | 9803 ft | 182 kts | 40° |
| 2026-05-08 03:00 | 19.37073 | -99.18763 | 9741 ft | 185 kts | 54° |
| 2026-05-08 03:00 | 19.37748 | -99.17609 | 9467 ft | 182 kts | 63° |
| 2026-05-08 03:00 | 19.38343 | -99.16445 | 9210 ft | 174 kts | 62° |
| 2026-05-08 03:01 | 19.38932 | -99.15345 | 8998 ft | 175 kts | 62° |
| 2026-05-08 03:01 | 19.39521 | -99.14191 | 8812 ft | 176 kts | 60° |
| 2026-05-08 03:01 | 19.40148 | -99.13079 | 8491 ft | 171 kts | 56° |
| 2026-05-08 03:01 | 19.40759 | -99.12026 | 8232 ft | 164 kts | 58° |
| 2026-05-08 03:02 | 19.41317 | -99.11023 | 8009 ft | 155 kts | 57° |
| 2026-05-08 03:02 | 19.41858 | -99.10057 | 7815 ft | 149 kts | 55° |
| 2026-05-08 03:02 | 19.42405 | -99.09102 | 7685 ft | 154 kts | 56° |
| 2026-05-08 03:02 | 19.42929 | -99.08140 | 8021 ft | 153 kts | 56° |
| 2026-05-08 03:03 | 19.43562 | -99.07093 | 7905 ft | 190 kts | 56° |
| 2026-05-08 03:03 | 19.44240 | -99.05904 | 8372 ft | 184 kts | 56° |
| 2026-05-08 03:03 | 19.44972 | -99.04786 | 8758 ft | 186 kts | 53° |
| 2026-05-08 03:03 | 19.45722 | -99.03690 | 8575 ft | 190 kts | 55° |
| 2026-05-08 03:04 | 19.46383 | -99.02374 | 8304 ft | 204 kts | 66° |
| 2026-05-08 03:04 | 19.46628 | -99.00983 | 8881 ft | 188 kts | 91° |
| 2026-05-08 03:04 | 19.46241 | -98.99635 | 9215 ft | 202 kts | 120° |
| 2026-05-08 03:04 | 19.45252 | -98.98569 | 9761 ft | 209 kts | 146° |
| 2026-05-08 03:05 | 19.43909 | -98.98032 | 10458 ft | 208 kts | 171° |
| 2026-05-08 03:05 | 19.42364 | -98.98108 | 10606 ft | 238 kts | 194° |
| 2026-05-08 03:05 | 19.40853 | -98.98915 | 10940 ft | 255 kts | 217° |
| 2026-05-08 03:05 | 19.39586 | -99.00284 | 11256 ft | 265 kts | 230° |
| 2026-05-08 03:06 | 19.38416 | -99.01849 | 11268 ft | 277 kts | 230° |
| 2026-05-08 03:06 | 19.37191 | -99.03531 | 11002 ft | 293 kts | 231° |
| 2026-05-08 03:06 | 19.35975 | -99.05243 | 11058 ft | 287 kts | 232° |
| 2026-05-08 03:06 | 19.34800 | -99.06937 | 11008 ft | 287 kts | 232° |
| 2026-05-08 03:07 | 19.33590 | -99.08637 | 10711 ft | 290 kts | 231° |
| 2026-05-08 03:07 | 19.32369 | -99.10352 | 10328 ft | 289 kts | 232° |
| 2026-05-08 03:07 | 19.31240 | -99.12035 | 10467 ft | 264 kts | 241° |
| 2026-05-08 03:07 | 19.30756 | -99.13794 | 10562 ft | 246 kts | 264° |
| 2026-05-08 03:08 | 19.30948 | -99.15564 | 10303 ft | 243 kts | 288° |
| 2026-05-08 03:08 | 19.31740 | -99.17097 | 10109 ft | 234 kts | 311° |
| 2026-05-08 03:08 | 19.32947 | -99.18176 | 10017 ft | 222 kts | 330° |
| 2026-05-08 03:08 | 19.34346 | -99.18874 | 9768 ft | 220 kts | 345° |
| 2026-05-08 03:09 | 19.35829 | -99.19125 | 9494 ft | 210 kts | 5° |
| 2026-05-08 03:09 | 19.37159 | -99.18757 | 9360 ft | 190 kts | 30° |
| 2026-05-08 03:09 | 19.38142 | -99.17816 | 8788 ft | 198 kts | 60° |
| 2026-05-08 03:09 | 19.38636 | -99.16435 | 8466 ft | 201 kts | 72° |
| 2026-05-08 03:10 | 19.39094 | -99.15047 | 8459 ft | 198 kts | 63° |
| 2026-05-08 03:10 | 19.39729 | -99.13869 | 8679 ft | 175 kts | 57° |
| 2026-05-08 03:10 | 19.40367 | -99.12756 | 8396 ft | 176 kts | 58° |
| 2026-05-08 03:10 | 19.40967 | -99.11644 | 8190 ft | 171 kts | 57° |
| 2026-05-08 03:11 | 19.41588 | -99.10558 | 7913 ft | 173 kts | 56° |
| 2026-05-08 03:11 | 19.42207 | -99.09477 | 7650 ft | 173 kts | 57° |
| 2026-05-08 03:11 | 19.42815 | -99.08385 | 7444 ft | 167 kts | 55° |
| 2026-05-08 03:11 | 19.43383 | -99.07394 | 7339 ft | 137 kts | 59° |
| 2026-05-08 03:12 | 19.43751 | -99.06732 | 7340 ft | 70 kts | 62° |
| 2026-05-08 03:12 | 19.43966 | -99.06276 | 7330 ft | 68 kts | 85° |
| 2026-05-08 03:12 | 19.43914 | -99.06103 | 7331 ft | 17 kts | 226° |
| 2026-05-08 03:12 | 19.43829 | -99.06231 | 7330 ft | 28 kts | 239° |
| 2026-05-08 03:13 | 19.43732 | -99.06411 | 7334 ft | 26 kts | 239° |
| 2026-05-08 03:13 | 19.43643 | -99.06570 | 7336 ft | 23 kts | 240° |
| 2026-05-08 03:13 | 19.43552 | -99.06702 | 7338 ft | 20 kts | 209° |
| 2026-05-08 03:13 | 19.43434 | -99.06770 | 7337 ft | 17 kts | 228° |
| 2026-05-08 03:14 | 19.43394 | -99.06879 | 7337 ft | 14 kts | 239° |
| 2026-05-08 03:14 | 19.43344 | -99.06960 | 7338 ft | 13 kts | 239° |
| 2026-05-08 03:14 | 19.43285 | -99.07064 | 7338 ft | 16 kts | 243° |
| 2026-05-08 03:14 | 19.43260 | -99.07176 | 7338 ft | 14 kts | 262° |
| 2026-05-08 03:15 | 19.43232 | -99.07291 | 7338 ft | 18 kts | 241° |
| 2026-05-08 03:15 | 19.43159 | -99.07419 | 7341 ft | 21 kts | 239° |
| 2026-05-08 03:15 | 19.43088 | -99.07541 | 7344 ft | 18 kts | 240° |
| 2026-05-08 03:15 | 19.43028 | -99.07649 | 7345 ft | 16 kts | 239° |
| 2026-05-08 03:16 | 19.42964 | -99.07754 | 7344 ft | 17 kts | 230° |
| 2026-05-08 03:16 | 19.42869 | -99.07836 | 7343 ft | 18 kts | 211° |
| 2026-05-08 03:16 | 19.42750 | -99.07878 | 7343 ft | 18 kts | 162° |
| 2026-05-08 03:16 | 19.42637 | -99.07811 | 7342 ft | 17 kts | 167° |
| 2026-05-08 03:17 | 19.42573 | -99.07897 | 7342 ft | 15 kts | 240° |
| 2026-05-08 03:17 | 19.42515 | -99.08003 | 7343 ft | 16 kts | 239° |
| 2026-05-08 03:17 | 19.42463 | -99.08092 | 7344 ft | 12 kts | 239° |
| 2026-05-08 03:17 | 19.42423 | -99.08165 | 7344 ft | 10 kts | 239° |
| 2026-05-08 03:18 | 19.42360 | -99.08202 | 7343 ft | 12 kts | 180° |
| 2026-05-08 03:18 | 19.42268 | -99.08205 | 7343 ft | 13 kts | 184° |
| 2026-05-08 03:18 | 19.42198 | -99.08171 | 7343 ft | 10 kts | 124° |
| 2026-05-08 03:18 | 19.42163 | -99.08108 | 7343 ft | 8 kts | 119° |
| 2026-05-08 03:19 | 19.42122 | -99.08095 | 7343 ft | 5 kts | 209° |
| 2026-05-08 03:19 | 19.42100 | -99.08109 | 7343 ft | 0 kts | 208° |
| 2026-05-08 03:19 | 19.42099 | -99.08109 | 7343 ft | 1 kts | 208° |
| 2026-05-08 03:19 | 19.42103 | -99.08106 | 7343 ft | 0 kts | 208° |